Fairmount Glacier — PBNC — position and weather

sailwx.info

Track history (hours):
 
Tides and Currents Weather Stations Pressure Air Temp Water Temp Dewpoint Dewpoint Depression Visibility Wind Speed Wind Dir Waves Ship Positions

Fairmount Glacier

Last reported at 2017-Sep-21 19:35 UTC. Time now 2017-Sep-24 08:55 UTC.
Position N 35°58' E 013°50'.

Length 75 m; draft 6.1 m.

Type: Tug. MMSI: 245355000.

Date/timePositionNaut miles runAvg speedWind from/ knotsBaromVisibWave heightAir tempDewpointWater temp
2017-Sep-21 19:35N 35°58' E 013°50'1 6.5
2017-Sep-21 19:29N 35°58' E 013°51'3 6.4
2017-Sep-21 19:00N 35°56' E 013°54'3 6.3
2017-Sep-21 18:30N 35°54' E 013°57'4 6.3
2017-Sep-21 17:49N 35°52' E 014°02'2 6.2
2017-Sep-21 17:30N 35°51' E 014°04'3 6.2
2017-Sep-21 17:01N 35°49' E 014°07'3 6.2
2017-Sep-21 16:30N 35°47' E 014°10'3 6.3
2017-Sep-21 16:00N 35°45' E 014°13'3 6.3
2017-Sep-21 15:30N 35°43' E 014°16'3 6.1
2017-Sep-21 15:00N 35°41' E 014°19'3 5.9
2017-Sep-21 14:30N 35°39' E 014°21'3 5.9
2017-Sep-21 14:00N 35°37' E 014°24'3 5.7
2017-Sep-21 13:30N 35°35' E 014°27'3 5.5
2017-Sep-21 13:00N 35°33' E 014°29'  
2017-Sep-19 04:06N 34°55' E 020°47'26 6.6
2017-Sep-19 00:07N 34°52' E 021°19'1 6.4
2017-Sep-19 00:00N 34°52' E 021°20'3 6.3
2017-Sep-18 23:28N 34°51' E 021°24'3 6.2
2017-Sep-18 23:00N 34°51' E 021°27'21 6.1
2017-Sep-18 19:37N 34°49' E 021°53'1 6.0
2017-Sep-18 19:29N 34°49' E 021°54'5 6.0
2017-Sep-18 18:44N 34°48' E 021°59'2 6.0
2017-Sep-18 18:22N 34°48' E 022°02'2 6.0
2017-Sep-18 17:58N 34°48' E 022°05'3 5.9
2017-Sep-18 17:30N 34°47' E 022°08'  
2017-Sep-14 17:38N 34°41' E 033°38'1 6.7
2017-Sep-14 17:30N 34°41' E 033°39'3 6.6
2017-Sep-14 17:00N 34°44' E 033°42'3 6.5
2017-Sep-14 16:30N 34°46' E 033°45'3 6.6
2017-Sep-14 15:59N 34°49' E 033°46'3 5.4
2017-Sep-14 15:22N 34°52' E 033°44'5 3.7
2017-Sep-14 14:03N 34°55' E 033°40'0 0.2
2017-Sep-14 11:47N 34°55' E 033°40'0 0.3
2017-Sep-14 11:26N 34°55' E 033°40'0 0.0
2017-Sep-14 10:44N 34°55' E 033°40'0 0.0
2017-Sep-14 10:29N 34°55' E 033°40'0 0.1
2017-Sep-14 09:59N 34°55' E 033°40'0 0.0
2017-Sep-14 08:20N 34°55' E 033°40'0 0.0
2017-Sep-14 07:56N 34°55' E 033°40'0 0.0
2017-Sep-13 16:35N 34°55' E 033°40'0 0.1
2017-Sep-13 16:23N 34°55' E 033°40'0 0.0
2017-Sep-13 15:56N 34°55' E 033°40'0 0.0
2017-Sep-13 15:20N 34°55' E 033°40'0 0.0
2017-Sep-13 14:56N 34°55' E 033°40'0 0.0
2017-Sep-13 14:29N 34°55' E 033°40'0 0.0
2017-Sep-13 13:59N 34°55' E 033°40'0 0.1
2017-Sep-13 13:20N 34°55' E 033°40'0 0.1
2017-Sep-13 12:56N 34°55' E 033°40'1 0.3
2017-Sep-13 09:48N 34°56' E 033°39'0 0.0
2017-Sep-13 09:18N 34°56' E 033°39'0 0.0
2017-Sep-13 09:00N 34°56' E 033°39'0 0.0
2017-Sep-13 07:39N 34°56' E 033°39'0 0.0
2017-Sep-13 07:21N 34°56' E 033°39'0 0.0
2017-Sep-13 03:03N 34°56' E 033°39'0 0.0
2017-Sep-13 01:24N 34°56' E 033°39'0 0.0
2017-Sep-13 01:00N 34°56' E 033°39'0 0.0
2017-Sep-13 00:30N 34°56' E 033°39'0 0.0
2017-Sep-13 00:00N 34°56' E 033°39'0 0.0
2017-Sep-12 23:30N 34°56' E 033°39'0 0.0
2017-Sep-12 20:15N 34°56' E 033°39'0 0.0
2017-Sep-12 20:00N 34°56' E 033°39'0 0.0
2017-Sep-12 19:24N 34°56' E 033°39'0 0.0
2017-Sep-12 19:00N 34°56' E 033°39'0 0.0
2017-Sep-12 18:30N 34°56' E 033°39'0 0.0
2017-Sep-12 17:12N 34°56' E 033°39'0 0.0
2017-Sep-12 16:00N 34°56' E 033°39'0 0.0
2017-Sep-12 15:30N 34°56' E 033°39'0 0.0
2017-Sep-12 14:06N 34°56' E 033°39'0 0.0
2017-Sep-12 14:00N 34°56' E 033°39'0 0.0
2017-Sep-12 13:30N 34°56' E 033°39'0 0.0
2017-Sep-12 13:00N 34°56' E 033°39'0 0.0
2017-Sep-12 12:30N 34°56' E 033°39'0 0.0
2017-Sep-12 12:00N 34°56' E 033°39'1 1.2
2017-Sep-12 11:31N 34°56' E 033°39'4 8.6
2017-Sep-12 11:00N 34°52' E 033°42'510.9
2017-Sep-12 10:30N 34°46' E 033°42'611.6
2017-Sep-12 10:00N 34°43' E 033°36'611.7
2017-Sep-12 09:30N 34°40' E 033°30'611.9
2017-Sep-12 09:01N 34°36' E 033°24'613.0
2017-Sep-12 08:30N 34°33' E 033°17'713.0
2017-Sep-12 08:00N 34°30' E 033°10'713.0
2017-Sep-12 07:30N 34°29' E 033°03'713.3
2017-Sep-12 07:00N 34°29' E 032°55'713.9
2017-Sep-12 06:30N 34°30' E 032°46'713.6
2017-Sep-12 05:58N 34°32' E 032°38'613.5
2017-Sep-12 05:30N 34°33' E 032°30'713.4
2017-Sep-12 05:00N 34°34' E 032°22'713.3
2017-Sep-12 04:30N 34°37' E 032°15'713.1
2017-Sep-12 03:59N 34°40' E 032°07'612.9
2017-Sep-12 03:30N 34°41' E 031°60'1013.3
2017-Sep-12 02:46N 34°41' E 031°48'313.3
2017-Sep-12 02:30N 34°42' E 031°44'713.2
2017-Sep-12 02:00N 34°44' E 031°36'713.3
2017-Sep-12 01:30N 34°46' E 031°29'713.3
2017-Sep-12 01:00N 34°49' E 031°21'713.3
2017-Sep-12 00:30N 34°51' E 031°13'713.3
2017-Sep-12 00:00N 34°52' E 031°05'713.2
2017-Sep-11 23:30N 34°54' E 030°58'713.1
2017-Sep-11 23:00N 34°56' E 030°50'613.0
2017-Sep-11 22:30N 34°58' E 030°42'713.0
2017-Sep-11 22:00N 35°00' E 030°35'613.0
2017-Sep-11 21:30N 35°02' E 030°27'612.9
2017-Sep-11 21:00N 35°04' E 030°20'  
Track history (hours):
 
Tides and Currents Weather Stations Pressure Air Temp Water Temp Dewpoint Dewpoint Depression Visibility Wind Speed Wind Dir Waves Ship Positions

Fairmount Glacier

Last reported at 2017-Sep-21 19:35 UTC. Time now 2017-Sep-24 08:55 UTC.
Position N 35°58' E 013°50'.

Length 75 m; draft 6.1 m.

Type: Tug. MMSI: 245355000.

Date/timePositionNaut miles runAvg speedWind from/ knotsBaromVisibWave heightAir tempDewpointWater temp
2017-Sep-21 19:35N 35°58' E 013°50'1 6.5
2017-Sep-21 19:29N 35°58' E 013°51'3 6.4
2017-Sep-21 19:00N 35°56' E 013°54'3 6.3
2017-Sep-21 18:30N 35°54' E 013°57'4 6.3
2017-Sep-21 17:49N 35°52' E 014°02'2 6.2
2017-Sep-21 17:30N 35°51' E 014°04'3 6.2
2017-Sep-21 17:01N 35°49' E 014°07'3 6.2
2017-Sep-21 16:30N 35°47' E 014°10'3 6.3
2017-Sep-21 16:00N 35°45' E 014°13'3 6.3
2017-Sep-21 15:30N 35°43' E 014°16'3 6.1
2017-Sep-21 15:00N 35°41' E 014°19'3 5.9
2017-Sep-21 14:30N 35°39' E 014°21'3 5.9
2017-Sep-21 14:00N 35°37' E 014°24'3 5.7
2017-Sep-21 13:30N 35°35' E 014°27'3 5.5
2017-Sep-21 13:00N 35°33' E 014°29'  
2017-Sep-19 04:06N 34°55' E 020°47'26 6.6
2017-Sep-19 00:07N 34°52' E 021°19'1 6.4
2017-Sep-19 00:00N 34°52' E 021°20'3 6.3
2017-Sep-18 23:28N 34°51' E 021°24'3 6.2
2017-Sep-18 23:00N 34°51' E 021°27'21 6.1
2017-Sep-18 19:37N 34°49' E 021°53'1 6.0
2017-Sep-18 19:29N 34°49' E 021°54'5 6.0
2017-Sep-18 18:44N 34°48' E 021°59'2 6.0
2017-Sep-18 18:22N 34°48' E 022°02'2 6.0
2017-Sep-18 17:58N 34°48' E 022°05'3 5.9
2017-Sep-18 17:30N 34°47' E 022°08'  
2017-Sep-14 17:38N 34°41' E 033°38'1 6.7
2017-Sep-14 17:30N 34°41' E 033°39'3 6.6
2017-Sep-14 17:00N 34°44' E 033°42'3 6.5
2017-Sep-14 16:30N 34°46' E 033°45'3 6.6
2017-Sep-14 15:59N 34°49' E 033°46'3 5.4
2017-Sep-14 15:22N 34°52' E 033°44'5 3.7
2017-Sep-14 14:03N 34°55' E 033°40'0 0.2
2017-Sep-14 11:47N 34°55' E 033°40'0 0.3
2017-Sep-14 11:26N 34°55' E 033°40'0 0.0
2017-Sep-14 10:44N 34°55' E 033°40'0 0.0
2017-Sep-14 10:29N 34°55' E 033°40'0 0.1
2017-Sep-14 09:59N 34°55' E 033°40'0 0.0
2017-Sep-14 08:20N 34°55' E 033°40'0 0.0
2017-Sep-14 07:56N 34°55' E 033°40'0 0.0
2017-Sep-13 16:35N 34°55' E 033°40'0 0.1
2017-Sep-13 16:23N 34°55' E 033°40'0 0.0
2017-Sep-13 15:56N 34°55' E 033°40'0 0.0
2017-Sep-13 15:20N 34°55' E 033°40'0 0.0
2017-Sep-13 14:56N 34°55' E 033°40'0 0.0
2017-Sep-13 14:29N 34°55' E 033°40'0 0.0
2017-Sep-13 13:59N 34°55' E 033°40'0 0.1
2017-Sep-13 13:20N 34°55' E 033°40'0 0.1
2017-Sep-13 12:56N 34°55' E 033°40'1 0.3
2017-Sep-13 09:48N 34°56' E 033°39'0 0.0
2017-Sep-13 09:18N 34°56' E 033°39'0 0.0
2017-Sep-13 09:00N 34°56' E 033°39'0 0.0
2017-Sep-13 07:39N 34°56' E 033°39'0 0.0
2017-Sep-13 07:21N 34°56' E 033°39'0 0.0
2017-Sep-13 03:03N 34°56' E 033°39'0 0.0
2017-Sep-13 01:24N 34°56' E 033°39'0 0.0
2017-Sep-13 01:00N 34°56' E 033°39'0 0.0
2017-Sep-13 00:30N 34°56' E 033°39'0 0.0
2017-Sep-13 00:00N 34°56' E 033°39'0 0.0
2017-Sep-12 23:30N 34°56' E 033°39'0 0.0
2017-Sep-12 20:15N 34°56' E 033°39'0 0.0
2017-Sep-12 20:00N 34°56' E 033°39'0 0.0
2017-Sep-12 19:24N 34°56' E 033°39'0 0.0
2017-Sep-12 19:00N 34°56' E 033°39'0 0.0
2017-Sep-12 18:30N 34°56' E 033°39'0 0.0
2017-Sep-12 17:12N 34°56' E 033°39'0 0.0
2017-Sep-12 16:00N 34°56' E 033°39'0 0.0
2017-Sep-12 15:30N 34°56' E 033°39'0 0.0
2017-Sep-12 14:06N 34°56' E 033°39'0 0.0
2017-Sep-12 14:00N 34°56' E 033°39'0 0.0
2017-Sep-12 13:30N 34°56' E 033°39'0 0.0
2017-Sep-12 13:00N 34°56' E 033°39'0 0.0
2017-Sep-12 12:30N 34°56' E 033°39'0 0.0
2017-Sep-12 12:00N 34°56' E 033°39'1 1.2
2017-Sep-12 11:31N 34°56' E 033°39'4 8.6
2017-Sep-12 11:00N 34°52' E 033°42'510.9
2017-Sep-12 10:30N 34°46' E 033°42'611.6
2017-Sep-12 10:00N 34°43' E 033°36'611.7
2017-Sep-12 09:30N 34°40' E 033°30'611.9
2017-Sep-12 09:01N 34°36' E 033°24'613.0
2017-Sep-12 08:30N 34°33' E 033°17'713.0
2017-Sep-12 08:00N 34°30' E 033°10'713.0
2017-Sep-12 07:30N 34°29' E 033°03'713.3
2017-Sep-12 07:00N 34°29' E 032°55'713.9
2017-Sep-12 06:30N 34°30' E 032°46'713.6
2017-Sep-12 05:58N 34°32' E 032°38'613.5
2017-Sep-12 05:30N 34°33' E 032°30'713.4
2017-Sep-12 05:00N 34°34' E 032°22'713.3
2017-Sep-12 04:30N 34°37' E 032°15'713.1
2017-Sep-12 03:59N 34°40' E 032°07'612.9
2017-Sep-12 03:30N 34°41' E 031°60'1013.3
2017-Sep-12 02:46N 34°41' E 031°48'313.3
2017-Sep-12 02:30N 34°42' E 031°44'713.2
2017-Sep-12 02:00N 34°44' E 031°36'713.3
2017-Sep-12 01:30N 34°46' E 031°29'713.3
2017-Sep-12 01:00N 34°49' E 031°21'713.3
2017-Sep-12 00:30N 34°51' E 031°13'713.3
2017-Sep-12 00:00N 34°52' E 031°05'713.2
2017-Sep-11 23:30N 34°54' E 030°58'713.1
2017-Sep-11 23:00N 34°56' E 030°50'613.0
2017-Sep-11 22:30N 34°58' E 030°42'713.0
2017-Sep-11 22:00N 35°00' E 030°35'613.0
2017-Sep-11 21:30N 35°02' E 030°27'612.9
2017-Sep-11 21:00N 35°04' E 030°20'  

Dump ship's entire track history